Time;durP1;ratioP1;P1;durP2;ratioP2;P2;SDS_P1;SDS_P2;PMS_P1;PMS_P2;Temp;Humidity;BMP_temperature;BMP_pressure;BME280_temperature;BME280_humidity;BME280_pressure;Samples;Min_cycle;Max_cycle;Signal;HPM_P1;HPM_P2
2021/09/11 00:00:06;;;;;;;;;;;20.60;95.10;;;;;;4301149;33;42767;-83
2021/09/11 00:02:36;;;;;;;;;;;20.60;95.40;;;;;;4300895;33;43921;-83
2021/09/11 00:05:04;;;;;;;;;;;20.60;95.00;;;;;;4302442;33;43996;-83
2021/09/11 00:07:34;;;;;;;;;;;20.60;95.00;;;;;;4301255;33;44231;-83
2021/09/11 00:10:04;;;;;;;;;;;20.60;95.00;;;;;;4302206;33;43846;-83
2021/09/11 00:12:31;;;;;;;;;;;20.60;95.00;;;;;;4302067;33;43886;-83
2021/09/11 00:15:03;;;;;;;;;;;20.60;95.00;;;;;;4312883;33;44478;-83
2021/09/11 00:17:39;;;;;;;;;;;20.60;95.00;;;;;;4302146;33;42866;-83
2021/09/11 00:20:09;;;;;;;;;;;20.60;95.00;;;;;;4300684;33;42808;-83
2021/09/11 00:22:37;;;;;;;;;;;20.60;94.90;;;;;;4301801;33;45472;-83
2021/09/11 00:25:07;;;;;;;;;;;20.60;94.90;;;;;;4312903;33;42770;-83
2021/09/11 00:27:36;;;;;;;;;;;20.60;94.90;;;;;;4302013;33;43937;-83
2021/09/11 00:30:06;;;;;;;;;;;20.60;94.90;;;;;;4301972;33;46004;-83
2021/09/11 00:32:51;;;;;;;;;;;20.60;94.90;;;;;;4301983;33;45674;-83
2021/09/11 00:35:19;;;;;;;;;;;20.60;94.90;;;;;;4301663;33;45168;-83
2021/09/11 00:37:55;;;;;;;;;;;20.60;94.90;;;;;;4300879;33;43915;-83
2021/09/11 00:40:30;;;;;;;;;;;20.50;94.80;;;;;;4301473;33;43572;-83
2021/09/11 00:43:03;;;;;;;;;;;20.50;94.80;;;;;;4312731;33;43564;-83
2021/09/11 00:45:33;;;;;;;;;;;20.60;94.80;;;;;;4300771;33;44201;-82
2021/09/11 00:48:08;;;;;;;;;;;20.50;94.80;;;;;;4300281;33;44096;-83
2021/09/11 00:50:38;;;;;;;;;;;20.50;94.80;;;;;;4300720;33;44158;-83
2021/09/11 00:53:11;;;;;;;;;;;20.50;94.70;;;;;;4301240;33;45442;-83
2021/09/11 00:55:38;;;;;;;;;;;20.50;94.70;;;;;;4300234;33;42944;-83
2021/09/11 00:58:05;;;;;;;;;;;20.50;94.70;;;;;;4300455;33;44233;-84
2021/09/11 01:00:32;;;;;;;;;;;20.50;94.70;;;;;;4300521;33;42333;-83
2021/09/11 01:03:00;;;;;;;;;;;20.50;94.70;;;;;;4300104;33;43450;-83
2021/09/11 01:05:33;;;;;;;;;;;20.50;94.70;;;;;;4313671;33;20325;-83
2021/09/11 01:08:00;;;;;;;;;;;20.50;94.70;;;;;;4300502;33;44692;-82
2021/09/11 01:10:36;;;;;;;;;;;20.50;94.60;;;;;;4300579;33;43931;-82
2021/09/11 01:13:06;;;;;;;;;;;20.40;94.60;;;;;;4301678;33;43956;-83
2021/09/11 01:15:40;;;;;;;;;;;20.40;94.60;;;;;;4300434;33;44788;-82
2021/09/11 01:18:13;;;;;;;;;;;20.40;94.60;;;;;;4300433;33;43350;-82
2021/09/11 01:20:43;;;;;;;;;;;20.40;94.60;;;;;;4300681;33;43185;-82
2021/09/11 01:23:13;;;;;;;;;;;20.40;94.60;;;;;;4300603;33;44562;-83
2021/09/11 01:25:41;;;;;;;;;;;20.40;94.50;;;;;;4300153;33;43532;-83
2021/09/11 01:28:11;;;;;;;;;;;20.40;94.50;;;;;;4300215;33;43211;-83
2021/09/11 01:30:46;;;;;;;;;;;20.40;94.50;;;;;;4299869;33;44211;-82
2021/09/11 01:33:18;;;;;;;;;;;20.40;94.50;;;;;;4301461;33;45318;-83
2021/09/11 01:35:51;;;;;;;;;;;20.40;94.40;;;;;;4313270;33;19999;-83
2021/09/11 01:38:19;;;;;;;;;;;20.30;94.40;;;;;;4301370;33;44651;-83
2021/09/11 01:40:49;;;;;;;;;;;20.40;94.40;;;;;;4300398;33;43222;-83
2021/09/11 01:43:25;;;;;;;;;;;20.30;94.40;;;;;;4300193;33;43944;-83
2021/09/11 01:45:54;;;;;;;;;;;20.30;94.40;;;;;;4301625;33;45916;-82
2021/09/11 01:48:28;;;;;;;;;;;20.30;94.40;;;;;;4300948;33;44601;-83
2021/09/11 01:51:07;;;;;;;;;;;20.30;94.40;;;;;;4303206;33;43132;-82
2021/09/11 01:53:42;;;;;;;;;;;20.30;94.40;;;;;;4303784;33;42297;-83
2021/09/11 01:56:09;;;;;;;;;;;20.30;94.40;;;;;;4304172;33;45496;-83
2021/09/11 01:58:43;;;;;;;;;;;20.30;94.30;;;;;;4303209;33;43509;-82
2021/09/11 02:01:15;;;;;;;;;;;20.30;94.30;;;;;;4304048;33;44675;-83
2021/09/11 02:03:45;;;;;;;;;;;20.30;94.30;;;;;;4317817;33;44723;-82
2021/09/11 02:06:18;;;;;;;;;;;20.20;94.30;;;;;;4306607;33;19998;-83
2021/09/11 02:08:45;;;;;;;;;;;20.20;94.30;;;;;;4317545;33;45899;-82
2021/09/11 02:11:17;;;;;;;;;;;20.20;94.30;;;;;;4304815;33;45039;-83
2021/09/11 02:13:47;;;;;;;;;;;20.20;94.30;;;;;;4318673;33;45895;-83
2021/09/11 02:16:16;;;;;;;;;;;20.20;94.30;;;;;;4305202;33;44777;-83
2021/09/11 02:18:55;;;;;;;;;;;20.20;94.30;;;;;;4305569;33;44378;-82
2021/09/11 02:21:27;;;;;;;;;;;20.20;94.30;;;;;;4317958;33;43294;-82
2021/09/11 02:24:00;;;;;;;;;;;20.20;94.30;;;;;;4318413;33;44375;-82
2021/09/11 02:26:27;;;;;;;;;;;20.20;94.20;;;;;;4305090;33;42902;-82
2021/09/11 02:28:57;;;;;;;;;;;20.20;94.30;;;;;;4317713;33;43819;-83
2021/09/11 02:31:24;;;;;;;;;;;20.10;94.20;;;;;;4317979;33;44125;-83
2021/09/11 02:33:56;;;;;;;;;;;20.10;94.20;;;;;;4317914;33;44211;-82
2021/09/11 02:36:29;;;;;;;;;;;20.10;94.20;;;;;;4319014;33;20002;-82
2021/09/11 02:38:59;;;;;;;;;;;20.20;94.20;;;;;;4318408;33;43988;-82
2021/09/11 02:41:29;;;;;;;;;;;20.10;94.20;;;;;;4305003;33;42325;-82
2021/09/11 02:44:03;;;;;;;;;;;20.10;94.20;;;;;;4305347;33;43923;-82
2021/09/11 02:46:36;;;;;;;;;;;20.10;94.20;;;;;;4304515;33;45158;-82
2021/09/11 02:49:09;;;;;;;;;;;20.10;94.20;;;;;;4304422;33;44227;-82
2021/09/11 02:51:44;;;;;;;;;;;20.10;94.50;;;;;;4317932;33;44783;-82
2021/09/11 02:54:16;;;;;;;;;;;20.10;94.20;;;;;;4316839;33;42332;-82
2021/09/11 02:56:46;;;;;;;;;;;20.00;94.10;;;;;;4304631;33;43891;-82
2021/09/11 02:59:18;;;;;;;;;;;20.00;94.20;;;;;;4303919;33;42685;-82
2021/09/11 03:01:51;;;;;;;;;;;20.00;94.20;;;;;;4317382;33;43473;-81
2021/09/11 03:04:21;;;;;;;;;;;20.00;94.20;;;;;;4317803;33;42708;-82
2021/09/11 03:06:54;;;;;;;;;;;20.00;94.20;;;;;;4317326;33;43297;-82
2021/09/11 03:09:26;;;;;;;;;;;20.00;94.20;;;;;;4316025;33;44980;-82
2021/09/11 03:12:02;;;;;;;;;;;20.00;94.20;;;;;;4304320;33;44501;-81
2021/09/11 03:14:32;;;;;;;;;;;20.00;94.20;;;;;;4304614;33;44774;-81
2021/09/11 03:17:02;;;;;;;;;;;19.90;94.10;;;;;;4317520;33;42467;-82
2021/09/11 03:19:32;;;;;;;;;;;19.90;94.10;;;;;;4304569;33;45657;-81
2021/09/11 03:22:05;;;;;;;;;;;19.90;94.10;;;;;;4316768;33;43921;-82
2021/09/11 03:24:34;;;;;;;;;;;19.90;94.10;;;;;;4317405;33;45255;-81
2021/09/11 03:27:04;;;;;;;;;;;19.90;94.10;;;;;;4304273;33;44227;-81
2021/09/11 03:29:37;;;;;;;;;;;19.90;94.10;;;;;;4303745;33;43570;-82
2021/09/11 03:32:07;;;;;;;;;;;19.90;94.10;;;;;;4316036;33;43333;-82
2021/09/11 03:34:37;;;;;;;;;;;19.90;94.10;;;;;;4317035;33;43420;-82
2021/09/11 03:37:04;;;;;;;;;;;19.80;94.10;;;;;;4304915;33;20002;-81
2021/09/11 03:39:34;;;;;;;;;;;19.90;94.10;;;;;;4315749;33;42752;-82
2021/09/11 03:42:06;;;;;;;;;;;19.80;94.10;;;;;;4304060;33;43489;-81
2021/09/11 03:44:36;;;;;;;;;;;19.80;94.10;;;;;;4316212;33;44187;-82
2021/09/11 03:47:04;;;;;;;;;;;19.80;94.10;;;;;;4315674;33;44003;-82
2021/09/11 03:49:31;;;;;;;;;;;19.70;94.10;;;;;;4304062;33;42839;-81
2021/09/11 03:52:01;;;;;;;;;;;19.70;94.10;;;;;;4304256;33;45314;-82
2021/09/11 03:54:28;;;;;;;;;;;19.70;94.00;;;;;;4303960;33;42893;-82
2021/09/11 03:56:55;;;;;;;;;;;19.70;94.00;;;;;;4316553;33;43549;-82
2021/09/11 03:59:28;;;;;;;;;;;19.70;93.90;;;;;;4316577;33;42950;-81
2021/09/11 04:01:55;;;;;;;;;;;19.70;93.90;;;;;;4315620;33;45562;-82
2021/09/11 04:04:30;;;;;;;;;;;19.70;93.90;;;;;;4315488;33;42638;-81
2021/09/11 04:07:02;;;;;;;;;;;19.70;93.80;;;;;;4303874;33;44064;-81
2021/09/11 04:09:35;;;;;;;;;;;19.70;93.80;;;;;;4316746;33;44034;-81
2021/09/11 04:12:02;;;;;;;;;;;19.70;93.70;;;;;;4315288;33;45176;-81
2021/09/11 04:14:35;;;;;;;;;;;19.60;93.70;;;;;;4303780;33;44859;-81
2021/09/11 04:17:08;;;;;;;;;;;19.60;93.70;;;;;;4316667;33;43922;-82
2021/09/11 04:19:35;;;;;;;;;;;19.60;93.70;;;;;;4303677;33;43333;-81
2021/09/11 04:22:07;;;;;;;;;;;19.60;93.60;;;;;;4303525;33;45290;-82
2021/09/11 04:24:37;;;;;;;;;;;19.60;93.50;;;;;;4316269;33;42514;-81
2021/09/11 04:27:12;;;;;;;;;;;19.60;93.50;;;;;;4303192;33;44932;-81
2021/09/11 04:29:39;;;;;;;;;;;19.60;93.50;;;;;;4303496;33;45123;-82
2021/09/11 04:32:12;;;;;;;;;;;19.60;93.50;;;;;;4303446;33;44258;-82
2021/09/11 04:34:47;;;;;;;;;;;19.60;93.50;;;;;;4316389;33;43853;-82
2021/09/11 04:37:15;;;;;;;;;;;19.60;93.50;;;;;;4302938;33;43056;-82
2021/09/11 04:39:48;;;;;;;;;;;19.50;93.50;;;;;;4315987;33;42925;-81
2021/09/11 04:42:15;;;;;;;;;;;19.50;93.50;;;;;;4316682;33;43946;-82
2021/09/11 04:44:42;;;;;;;;;;;19.50;93.50;;;;;;4302933;33;43659;-82
2021/09/11 04:47:11;;;;;;;;;;;19.50;93.50;;;;;;4302822;33;44326;-82
2021/09/11 04:49:44;;;;;;;;;;;19.50;93.50;;;;;;4316268;33;43849;-81
2021/09/11 04:52:14;;;;;;;;;;;19.50;93.50;;;;;;4315889;33;44329;-82
2021/09/11 04:54:44;;;;;;;;;;;19.50;93.60;;;;;;4316298;33;45564;-81
2021/09/11 04:57:14;;;;;;;;;;;19.50;93.60;;;;;;4315810;33;42902;-81
2021/09/11 04:59:50;;;;;;;;;;;19.40;93.60;;;;;;4315722;33;42708;-80
2021/09/11 05:02:25;;;;;;;;;;;19.40;93.60;;;;;;4316107;33;44969;-81
2021/09/11 05:04:58;;;;;;;;;;;19.40;93.70;;;;;;4316307;33;44716;-81
2021/09/11 05:07:30;;;;;;;;;;;19.40;93.70;;;;;;4303089;33;44212;-80
2021/09/11 05:09:57;;;;;;;;;;;19.30;93.70;;;;;;4303101;33;42979;-82
2021/09/11 05:12:30;;;;;;;;;;;19.30;93.70;;;;;;4314629;33;42837;-81
2021/09/11 05:15:00;;;;;;;;;;;19.30;93.70;;;;;;4302518;33;44718;-81
2021/09/11 05:17:30;;;;;;;;;;;19.30;93.80;;;;;;4302411;33;43611;-80
2021/09/11 05:20:11;;;;;;;;;;;19.20;93.80;;;;;;4303214;33;44111;-81
2021/09/11 05:22:47;;;;;;;;;;;19.30;93.90;;;;;;4315409;33;44933;-82
2021/09/11 05:25:19;;;;;;;;;;;19.20;93.90;;;;;;4316034;33;43817;-80
2021/09/11 05:27:55;;;;;;;;;;;19.20;93.90;;;;;;4303297;33;42937;-82
2021/09/11 05:30:25;;;;;;;;;;;19.10;93.90;;;;;;4302886;33;44800;-81
2021/09/11 05:32:52;;;;;;;;;;;19.10;94.00;;;;;;4315859;33;43103;-83
2021/09/11 05:35:25;;;;;;;;;;;19.10;94.10;;;;;;4315444;33;43267;-81
2021/09/11 05:37:54;;;;;;;;;;;19.00;94.10;;;;;;4314534;33;44277;-82
2021/09/11 05:40:27;;;;;;;;;;;19.00;94.10;;;;;;4315665;33;42303;-81
2021/09/11 05:42:59;;;;;;;;;;;19.00;94.10;;;;;;4302417;33;42886;-81
2021/09/11 05:45:32;;;;;;;;;;;19.00;94.10;;;;;;4315896;33;43870;-81
2021/09/11 05:48:08;;;;;;;;;;;19.00;94.10;;;;;;4302334;33;43805;-81
2021/09/11 05:50:35;;;;;;;;;;;18.90;94.10;;;;;;4315790;33;45884;-82
2021/09/11 05:53:08;;;;;;;;;;;18.90;94.20;;;;;;4302292;33;44037;-80
2021/09/11 05:55:41;;;;;;;;;;;18.90;94.20;;;;;;4315757;33;43802;-80
2021/09/11 05:58:16;;;;;;;;;;;18.90;94.20;;;;;;4302693;33;43483;-81
2021/09/11 06:00:51;;;;;;;;;;;18.90;94.20;;;;;;4315847;33;45317;-81
2021/09/11 06:03:21;;;;;;;;;;;18.90;94.20;;;;;;4315475;33;45029;-80
2021/09/11 06:05:52;;;;;;;;;;;18.90;94.20;;;;;;4302226;33;44274;-80
2021/09/11 06:08:21;;;;;;;;;;;18.90;94.20;;;;;;4315323;33;42736;-80
2021/09/11 06:10:48;;;;;;;;;;;18.90;94.20;;;;;;4315635;33;43647;-80
2021/09/11 06:13:18;;;;;;;;;;;18.90;94.20;;;;;;4302124;33;43253;-80
2021/09/11 06:15:48;;;;;;;;;;;18.90;94.20;;;;;;4315663;33;44590;-80
2021/09/11 06:18:15;;;;;;;;;;;18.90;94.20;;;;;;4315009;33;45059;-80
2021/09/11 06:20:48;;;;;;;;;;;18.90;94.20;;;;;;4314470;33;43299;-81
2021/09/11 06:23:18;;;;;;;;;;;18.90;94.10;;;;;;4315605;33;44241;-81
2021/09/11 06:25:48;;;;;;;;;;;18.90;94.10;;;;;;4302731;33;43327;-81
2021/09/11 06:28:15;;;;;;;;;;;19.00;94.10;;;;;;4315016;33;44436;-81
2021/09/11 06:30:43;;;;;;;;;;;19.00;94.10;;;;;;4314695;33;43279;-79
2021/09/11 06:33:12;;;;;;;;;;;19.00;94.10;;;;;;4302326;33;43335;-80
2021/09/11 06:35:43;;;;;;;;;;;19.00;94.10;;;;;;4305100;33;44773;-80
2021/09/11 06:38:18;;;;;;;;;;;19.00;94.10;;;;;;4305073;33;43520;-81
2021/09/11 06:40:45;;;;;;;;;;;19.00;94.10;;;;;;4306002;33;20010;-81
2021/09/11 06:43:18;;;;;;;;;;;19.00;94.10;;;;;;4304485;33;45082;-81
2021/09/11 06:45:47;;;;;;;;;;;19.00;94.10;;;;;;4318153;33;43420;-80
2021/09/11 06:48:15;;;;;;;;;;;19.00;94.10;;;;;;4317921;33;43605;-80
2021/09/11 06:50:44;;;;;;;;;;;19.00;94.10;;;;;;4304680;33;45483;-80
2021/09/11 06:53:14;;;;;;;;;;;19.00;94.10;;;;;;4317528;33;44713;-81
2021/09/11 06:55:42;;;;;;;;;;;19.10;94.10;;;;;;4304971;33;45880;-81
2021/09/11 06:58:14;;;;;;;;;;;19.10;94.10;;;;;;4304767;33;45834;-80
2021/09/11 07:00:44;;;;;;;;;;;19.10;94.10;;;;;;4316488;33;44317;-80
2021/09/11 07:03:15;;;;;;;;;;;19.10;94.10;;;;;;4316336;33;45602;-80
2021/09/11 07:05:50;;;;;;;;;;;19.10;94.10;;;;;;4317902;33;44359;-80
2021/09/11 07:08:20;;;;;;;;;;;19.10;94.10;;;;;;4304611;33;44064;-79
2021/09/11 07:10:47;;;;;;;;;;;19.10;94.10;;;;;;4318406;33;20407;-80
2021/09/11 07:13:14;;;;;;;;;;;19.00;94.10;;;;;;4317149;33;44358;-80
2021/09/11 07:15:49;;;;;;;;;;;19.10;94.10;;;;;;4317147;33;44287;-79
2021/09/11 07:18:17;;;;;;;;;;;19.10;94.10;;;;;;4304474;33;43307;-81
2021/09/11 07:20:46;;;;;;;;;;;19.10;94.10;;;;;;4316031;33;44180;-80
2021/09/11 07:23:19;;;;;;;;;;;19.00;94.10;;;;;;4316532;33;45024;-80
2021/09/11 07:25:51;;;;;;;;;;;19.00;94.10;;;;;;4317589;33;43716;-80
2021/09/11 07:28:24;;;;;;;;;;;19.00;94.10;;;;;;4316214;33;45151;-80
2021/09/11 07:30:52;;;;;;;;;;;19.00;94.10;;;;;;4317011;33;42991;-80
2021/09/11 07:33:27;;;;;;;;;;;19.00;94.10;;;;;;4303984;33;45756;-79
2021/09/11 07:36:06;;;;;;;;;;;19.00;94.10;;;;;;4317262;33;45656;-80
2021/09/11 07:38:39;;;;;;;;;;;19.00;94.10;;;;;;4317195;33;45995;-80
2021/09/11 07:41:12;;;;;;;;;;;19.00;94.20;;;;;;4316866;33;20006;-79
2021/09/11 07:43:48;;;;;;;;;;;19.00;94.20;;;;;;4304064;33;44241;-79
2021/09/11 07:46:15;;;;;;;;;;;19.00;94.20;;;;;;4317313;33;44955;-80
2021/09/11 07:48:48;;;;;;;;;;;19.00;94.20;;;;;;4303845;33;44295;-79
2021/09/11 07:51:26;;;;;;;;;;;19.00;94.20;;;;;;4317028;33;44986;-79
2021/09/11 07:54:01;;;;;;;;;;;19.00;94.20;;;;;;4316659;33;43292;-79
2021/09/11 07:56:42;;;;;;;;;;;19.00;94.20;;;;;;4304103;33;43370;-80
2021/09/11 07:59:13;;;;;;;;;;;19.00;94.30;;;;;;4303506;33;43997;-79
2021/09/11 08:01:40;;;;;;;;;;;19.00;94.30;;;;;;4316678;33;43243;-80
2021/09/11 08:04:13;;;;;;;;;;;19.00;94.30;;;;;;4315438;33;43108;-80
2021/09/11 08:06:44;;;;;;;;;;;19.00;94.30;;;;;;4303592;33;44929;-80
2021/09/11 08:09:22;;;;;;;;;;;19.00;94.30;;;;;;4315816;33;44845;-79
2021/09/11 08:11:58;;;;;;;;;;;19.00;94.30;;;;;;4304251;33;19995;-80
2021/09/11 08:14:25;;;;;;;;;;;19.00;94.30;;;;;;4317118;33;43473;-80
2021/09/11 08:16:54;;;;;;;;;;;19.10;94.40;;;;;;4315597;33;44210;-80
2021/09/11 08:19:24;;;;;;;;;;;19.10;94.30;;;;;;4303537;33;43812;-80
2021/09/11 08:21:51;;;;;;;;;;;19.00;94.30;;;;;;4315178;33;44119;-80
2021/09/11 08:24:26;;;;;;;;;;;19.10;94.30;;;;;;4303384;33;42654;-80
2021/09/11 08:26:53;;;;;;;;;;;19.10;94.30;;;;;;4303447;33;43211;-80
2021/09/11 08:29:26;;;;;;;;;;;19.10;94.30;;;;;;4315236;33;42705;-79
2021/09/11 08:31:59;;;;;;;;;;;19.10;94.30;;;;;;4303355;33;43474;-80
2021/09/11 08:34:32;;;;;;;;;;;19.10;94.30;;;;;;4303106;33;45389;-79
2021/09/11 08:37:02;;;;;;;;;;;19.10;94.30;;;;;;4316501;33;44054;-80
2021/09/11 08:39:29;;;;;;;;;;;19.10;94.30;;;;;;4316627;33;44802;-80
2021/09/11 08:41:56;;;;;;;;;;;19.10;94.30;;;;;;4303011;33;43717;-80
2021/09/11 08:44:30;;;;;;;;;;;19.10;94.30;;;;;;4315380;33;44191;-80
2021/09/11 08:47:03;;;;;;;;;;;19.00;94.20;;;;;;4315275;33;44112;-80
2021/09/11 08:49:30;;;;;;;;;;;19.10;94.30;;;;;;4316352;33;42283;-79
2021/09/11 08:52:01;;;;;;;;;;;19.10;94.30;;;;;;4302739;33;44915;-80
2021/09/11 08:54:34;;;;;;;;;;;19.10;94.30;;;;;;4303059;33;44057;-80
2021/09/11 08:57:22;;;;;;;;;;;19.10;94.30;;;;;;4314849;33;45009;-79
2021/09/11 08:59:49;;;;;;;;;;;19.10;94.30;;;;;;4303135;33;45667;-80
2021/09/11 09:02:19;;;;;;;;;;;19.10;94.60;;;;;;4302789;33;44553;-80
2021/09/11 09:04:51;;;;;;;;;;;19.10;94.20;;;;;;4316351;33;44254;-79
2021/09/11 09:07:48;;;;;;;;;;;19.20;94.20;;;;;;4302966;33;45909;-79
2021/09/11 09:10:23;;;;;;;;;;;19.20;94.20;;;;;;4296438;33;44212;-80
2021/09/11 09:12:55;;;;;;;;;;;19.10;94.20;;;;;;4303858;33;20010;-79
2021/09/11 09:15:30;;;;;;;;;;;19.20;94.20;;;;;;4316051;33;44212;-79
2021/09/11 09:18:03;;;;;;;;;;;19.10;94.20;;;;;;4303054;33;44176;-79
2021/09/11 09:20:33;;;;;;;;;;;19.20;94.20;;;;;;4316000;33;42854;-79
2021/09/11 09:23:06;;;;;;;;;;;19.20;94.20;;;;;;4302817;33;43357;-80
2021/09/11 09:25:38;;;;;;;;;;;19.20;94.20;;;;;;4303289;33;43477;-79
2021/09/11 09:28:07;;;;;;;;;;;19.20;94.30;;;;;;4302662;33;42419;-79
2021/09/11 09:30:47;;;;;;;;;;;19.20;94.30;;;;;;4316213;33;43436;-80
2021/09/11 09:33:24;;;;;;;;;;;19.20;94.30;;;;;;4316066;33;43918;-80
2021/09/11 09:35:58;;;;;;;;;;;19.30;94.20;;;;;;4315930;33;45577;-79
2021/09/11 09:38:27;;;;;;;;;;;19.30;94.20;;;;;;4302804;33;46053;-80
2021/09/11 09:41:00;;;;;;;;;;;19.30;94.20;;;;;;4315839;33;44208;-79
2021/09/11 09:43:37;;;;;;;;;;;19.30;94.20;;;;;;4315304;33;19993;-79
2021/09/11 09:46:10;;;;;;;;;;;19.30;94.20;;;;;;4315762;33;46248;-80
2021/09/11 09:48:43;;;;;;;;;;;19.30;94.20;;;;;;4302852;33;45038;-80
2021/09/11 09:51:22;;;;;;;;;;;19.30;94.20;;;;;;4302576;33;44038;-79
2021/09/11 09:53:50;;;;;;;;;;;19.30;94.20;;;;;;4302666;33;44879;-80
2021/09/11 09:56:23;;;;;;;;;;;19.30;94.20;;;;;;4314705;33;44924;-79
2021/09/11 09:58:50;;;;;;;;;;;19.40;94.30;;;;;;4302286;33;43760;-79
2021/09/11 10:01:20;;;;;;;;;;;19.40;94.30;;;;;;4302336;33;43982;-80
2021/09/11 10:03:56;;;;;;;;;;;19.40;94.20;;;;;;4302319;33;43466;-80
2021/09/11 10:06:33;;;;;;;;;;;19.40;94.20;;;;;;4302247;33;44163;-79
2021/09/11 10:09:05;;;;;;;;;;;19.40;94.20;;;;;;4316155;33;44314;-79
2021/09/11 10:11:38;;;;;;;;;;;19.40;94.10;;;;;;4318411;33;43375;-79
2021/09/11 10:14:14;;;;;;;;;;;19.40;94.10;;;;;;4306201;33;20002;-79
2021/09/11 10:17:04;;;;;;;;;;;19.50;94.20;;;;;;4305722;33;44919;-80
2021/09/11 10:19:42;;;;;;;;;;;19.40;94.10;;;;;;4305243;33;45022;-79
2021/09/11 10:22:16;;;;;;;;;;;19.50;94.10;;;;;;4318060;33;42773;-79
2021/09/11 10:25:03;;;;;;;;;;;19.50;94.10;;;;;;4305522;33;45767;-79
2021/09/11 10:27:40;;;;;;;;;;;19.50;94.10;;;;;;4318290;33;43854;-80
2021/09/11 10:30:19;;;;;;;;;;;19.50;94.20;;;;;;4318224;33;45388;-80
2021/09/11 10:32:52;;;;;;;;;;;19.50;94.10;;;;;;4305043;33;44667;-79
2021/09/11 10:35:23;;;;;;;;;;;19.50;94.10;;;;;;4317180;33;45256;-79
2021/09/11 10:37:54;;;;;;;;;;;19.50;94.00;;;;;;4317603;33;44126;-79
2021/09/11 10:40:24;;;;;;;;;;;19.60;94.00;;;;;;4305063;33;43276;-80
2021/09/11 10:43:01;;;;;;;;;;;19.50;94.00;;;;;;4305239;33;44710;-80
2021/09/11 10:45:47;;;;;;;;;;;19.50;94.00;;;;;;4304587;33;42846;-79
2021/09/11 10:48:30;;;;;;;;;;;19.60;94.00;;;;;;4317481;33;44725;-79
2021/09/11 10:51:19;;;;;;;;;;;19.60;94.00;;;;;;4304903;33;42718;-80
2021/09/11 10:54:09;;;;;;;;;;;19.60;94.00;;;;;;4313039;33;42767;-80
2021/09/11 10:56:52;;;;;;;;;;;19.60;94.00;;;;;;4304403;33;44940;-80
2021/09/11 10:59:28;;;;;;;;;;;19.60;93.90;;;;;;4304967;33;43857;-79
2021/09/11 11:02:04;;;;;;;;;;;19.60;93.90;;;;;;4304662;33;44119;-79
2021/09/11 11:04:40;;;;;;;;;;;19.60;93.90;;;;;;4301818;33;44556;-79
2021/09/11 11:07:12;;;;;;;;;;;19.60;93.90;;;;;;4302160;33;43647;-79
2021/09/11 11:09:49;;;;;;;;;;;19.60;93.90;;;;;;4302038;33;44986;-80
2021/09/11 11:12:37;;;;;;;;;;;19.60;93.90;;;;;;4303262;33;43363;-79
2021/09/11 11:15:12;;;;;;;;;;;19.60;93.90;;;;;;4315088;33;20034;-79
2021/09/11 11:17:49;;;;;;;;;;;19.60;93.90;;;;;;4302177;33;44150;-79
2021/09/11 11:20:33;;;;;;;;;;;19.60;93.90;;;;;;4301301;33;44751;-80
2021/09/11 11:23:06;;;;;;;;;;;19.60;93.90;;;;;;4303012;33;43224;-79
2021/09/11 11:25:39;;;;;;;;;;;19.70;93.90;;;;;;4303000;33;43398;-79
2021/09/11 11:28:18;;;;;;;;;;;19.60;93.90;;;;;;4303009;33;45487;-80
2021/09/11 11:30:56;;;;;;;;;;;19.70;93.90;;;;;;4301542;33;42489;-79
2021/09/11 11:33:26;;;;;;;;;;;19.70;93.90;;;;;;4301459;33;44892;-79
2021/09/11 11:36:08;;;;;;;;;;;19.70;93.90;;;;;;4301674;33;46206;-79
2021/09/11 11:38:38;;;;;;;;;;;19.70;93.90;;;;;;4301796;33;45935;-79
2021/09/11 11:41:11;;;;;;;;;;;19.70;93.90;;;;;;4301575;33;44331;-79
2021/09/11 11:43:44;;;;;;;;;;;19.70;93.90;;;;;;4301797;33;45980;-79
2021/09/11 11:46:20;;;;;;;;;;;19.70;93.80;;;;;;4302642;33;20010;-79
2021/09/11 11:48:55;;;;;;;;;;;19.70;93.80;;;;;;4302614;33;45753;-79
2021/09/11 11:51:23;;;;;;;;;;;19.70;93.80;;;;;;4302679;33;44220;-79
2021/09/11 11:53:52;;;;;;;;;;;19.70;93.80;;;;;;4300933;33;45290;-80
2021/09/11 11:56:27;;;;;;;;;;;19.70;93.80;;;;;;4301622;33;44038;-79
2021/09/11 11:59:03;;;;;;;;;;;19.70;93.80;;;;;;4313439;33;43784;-79
2021/09/11 12:01:33;;;;;;;;;;;19.70;93.80;;;;;;4302548;33;43805;-79
2021/09/11 12:04:13;;;;;;;;;;;19.70;93.80;;;;;;4300761;33;45801;-80
2021/09/11 12:06:55;;;;;;;;;;;19.80;93.80;;;;;;4302438;33;45216;-79
2021/09/11 12:09:25;;;;;;;;;;;19.70;93.80;;;;;;4301986;33;42807;-79
2021/09/11 12:12:04;;;;;;;;;;;19.70;93.80;;;;;;4301146;33;44550;-79
2021/09/11 12:14:31;;;;;;;;;;;19.70;93.80;;;;;;4301181;33;44706;-79
2021/09/11 12:17:02;;;;;;;;;;;19.70;93.80;;;;;;4301200;33;43165;-79
2021/09/11 12:19:34;;;;;;;;;;;19.70;93.90;;;;;;4300733;33;43624;-79
2021/09/11 12:22:15;;;;;;;;;;;19.70;93.80;;;;;;4300682;33;43511;-79
2021/09/11 12:24:51;;;;;;;;;;;19.70;93.80;;;;;;4300962;33;43530;-79
2021/09/11 12:27:29;;;;;;;;;;;19.70;93.80;;;;;;4301286;33;43478;-79
2021/09/11 12:30:06;;;;;;;;;;;19.70;93.90;;;;;;4301065;33;42364;-79
2021/09/11 12:32:47;;;;;;;;;;;19.80;93.90;;;;;;4301312;33;44589;-80
2021/09/11 12:35:27;;;;;;;;;;;19.80;93.90;;;;;;4302033;33;43932;-80
2021/09/11 12:38:01;;;;;;;;;;;19.80;94.00;;;;;;4313003;33;44564;-79
2021/09/11 12:40:36;;;;;;;;;;;19.80;94.00;;;;;;4301969;33;44771;-80
2021/09/11 12:43:08;;;;;;;;;;;19.70;94.00;;;;;;4300860;33;44856;-79
2021/09/11 12:45:44;;;;;;;;;;;19.80;94.00;;;;;;4300826;33;43716;-79
2021/09/11 12:48:14;;;;;;;;;;;19.80;94.00;;;;;;4301172;33;44269;-80
2021/09/11 12:50:50;;;;;;;;;;;19.80;94.10;;;;;;4301557;33;43204;-80
2021/09/11 12:53:26;;;;;;;;;;;19.80;94.00;;;;;;4312677;33;43235;-79
2021/09/11 12:55:56;;;;;;;;;;;19.80;94.00;;;;;;4300252;33;43339;-79
2021/09/11 12:58:31;;;;;;;;;;;19.80;94.00;;;;;;4301639;33;45854;-80
2021/09/11 13:01:01;;;;;;;;;;;19.80;94.00;;;;;;4301850;33;43839;-80
2021/09/11 13:03:33;;;;;;;;;;;19.90;94.10;;;;;;4309048;33;44212;-80
2021/09/11 13:06:04;;;;;;;;;;;19.90;94.00;;;;;;4303694;33;44334;-80
2021/09/11 13:08:42;;;;;;;;;;;19.90;94.00;;;;;;4316028;33;44506;-79
2021/09/11 13:11:18;;;;;;;;;;;19.90;94.00;;;;;;4303288;33;43535;-79
2021/09/11 13:13:53;;;;;;;;;;;19.90;94.00;;;;;;4316060;33;43505;-80
2021/09/11 13:16:20;;;;;;;;;;;19.90;94.00;;;;;;4315233;33;45799;-80
2021/09/11 13:18:54;;;;;;;;;;;19.90;94.00;;;;;;4302454;33;44921;-79
2021/09/11 13:21:21;;;;;;;;;;;19.90;94.00;;;;;;4302927;33;44598;-80
2021/09/11 13:23:55;;;;;;;;;;;19.90;94.00;;;;;;4302376;33;44368;-79
2021/09/11 13:26:28;;;;;;;;;;;20.00;94.00;;;;;;4316067;33;45018;-79
2021/09/11 13:29:06;;;;;;;;;;;20.00;94.00;;;;;;4302849;33;44633;-79
2021/09/11 13:31:41;;;;;;;;;;;20.00;94.00;;;;;;4316113;33;44096;-79
2021/09/11 13:34:17;;;;;;;;;;;19.90;93.90;;;;;;4315870;33;43437;-79
2021/09/11 13:36:53;;;;;;;;;;;20.00;93.90;;;;;;4315919;33;44021;-79
2021/09/11 13:39:23;;;;;;;;;;;20.00;94.00;;;;;;4302735;33;44841;-79
2021/09/11 13:41:55;;;;;;;;;;;20.00;93.90;;;;;;4302901;33;44285;-80
2021/09/11 13:44:32;;;;;;;;;;;20.00;94.00;;;;;;4305258;33;42795;-79
2021/09/11 13:47:22;;;;;;;;;;;20.00;93.90;;;;;;4307059;33;42647;-79
2021/09/11 13:49:57;;;;;;;;;;;20.00;94.00;;;;;;4306899;33;20379;-79
2021/09/11 13:52:32;;;;;;;;;;;20.00;93.90;;;;;;4305637;33;44530;-80
2021/09/11 13:55:08;;;;;;;;;;;20.00;94.00;;;;;;4305689;33;43390;-80
2021/09/11 13:57:46;;;;;;;;;;;20.00;94.00;;;;;;4305669;33;46155;-80
2021/09/11 14:00:22;;;;;;;;;;;20.00;93.90;;;;;;4318667;33;44181;-80
2021/09/11 14:02:57;;;;;;;;;;;20.00;93.90;;;;;;4305285;33;45435;-79
2021/09/11 14:05:32;;;;;;;;;;;20.00;93.90;;;;;;4317544;33;45344;-79
2021/09/11 14:08:00;;;;;;;;;;;20.00;94.00;;;;;;4305387;33;44095;-80
2021/09/11 14:10:27;;;;;;;;;;;20.00;94.00;;;;;;4305069;33;45061;-79
2021/09/11 14:12:57;;;;;;;;;;;20.00;94.00;;;;;;4305562;33;44059;-80
2021/09/11 14:15:37;;;;;;;;;;;20.00;94.00;;;;;;4305846;33;45681;-79
2021/09/11 14:18:13;;;;;;;;;;;20.10;94.10;;;;;;4305326;33;45605;-80
2021/09/11 14:20:48;;;;;;;;;;;20.10;94.00;;;;;;4306074;33;20049;-80
2021/09/11 14:23:23;;;;;;;;;;;20.10;94.00;;;;;;4318497;33;43598;-79
2021/09/11 14:25:53;;;;;;;;;;;20.10;94.00;;;;;;4305218;33;43352;-79
2021/09/11 14:28:29;;;;;;;;;;;20.10;94.00;;;;;;4305145;33;46241;-79
2021/09/11 14:31:04;;;;;;;;;;;20.10;94.00;;;;;;4318233;33;45602;-79
2021/09/11 14:33:40;;;;;;;;;;;20.10;94.00;;;;;;4304997;33;44806;-80
2021/09/11 14:36:15;;;;;;;;;;;20.10;94.00;;;;;;4318271;33;45693;-79
2021/09/11 14:38:44;;;;;;;;;;;20.20;94.00;;;;;;4318189;33;43509;-79
2021/09/11 14:41:17;;;;;;;;;;;20.20;94.00;;;;;;4305134;33;43926;-79
2021/09/11 14:43:50;;;;;;;;;;;20.20;94.00;;;;;;4317057;33;44514;-80
2021/09/11 14:46:30;;;;;;;;;;;20.20;94.00;;;;;;4316915;33;45958;-79